Melinda Brent — WDC2606 — position and weather

sailwx.info

Track history (hours):
 
Tides and Currents Weather Stations Pressure Air Temp Water Temp Dewpoint Dewpoint Depression Visibility Wind Speed Wind Dir Waves Ship Positions

Melinda Brent

Owner: Kirby Inland Marine, LP, Houston, TX. More information available from US FCC via Universal Licensing System and Coast Guard Vessel Documentation Center.

Last reported at 2018-May-19 18:59 UTC. Time now 2018-May-21 01:31 UTC.
Position N 32°37' W 091°09'.

Length 114 m; draft 2.9 m.

Type: . MMSI: 366995520.

Date/timePositionNaut miles runAvg speedWind from/ knotsBaromVisibWave heightAir tempDewpointWater temp
2018-May-19 18:59N 32°37' W 091°09'3 5.4
2018-May-19 18:29N 32°35' W 091°07'2 5.1
2018-May-19 18:00N 32°32' W 091°06'3 5.9
2018-May-19 17:30N 32°30' W 091°07'3 5.5
2018-May-19 17:01N 32°27' W 091°05'3 5.5
2018-May-19 16:30N 32°26' W 091°02'3 5.3
2018-May-19 16:01N 32°25' W 090°60'3 5.3
2018-May-19 15:31N 32°22' W 091°00'2 4.7
2018-May-19 15:00N 32°21' W 090°58'3 5.4
2018-May-19 14:31N 32°21' W 090°55'2 4.0
2018-May-19 14:00N 32°19' W 090°55'1 2.4
2018-May-19 13:31N 32°18' W 090°56'0 0.0
2018-May-19 13:01N 32°18' W 090°56'0 0.0
2018-May-19 12:31N 32°18' W 090°56'0 0.0
2018-May-19 12:01N 32°18' W 090°56'1 2.5
2018-May-19 11:31N 32°17' W 090°57'3 5.4
2018-May-19 11:00N 32°15' W 090°59'3 5.0
2018-May-19 10:30N 32°12' W 090°59'2 4.4
2018-May-19 10:00N 32°10' W 090°60'2 4.3
2018-May-19 09:30N 32°08' W 091°00'5 3.8
2018-May-19 08:18N 32°08' W 091°06'1 3.6
2018-May-19 08:00N 32°07' W 091°06'3 3.5
2018-May-19 07:15N 32°05' W 091°04'2 4.7
2018-May-19 06:55N 32°04' W 091°04'2 4.6
2018-May-19 06:24N 32°01' W 091°04'  
2018-May-14 06:59N 31°42' W 091°24'9 9.3
2018-May-14 06:03N 31°50' W 091°21'1 8.6
2018-May-14 05:55N 31°51' W 091°20'7 8.8
2018-May-14 05:05N 31°54' W 091°12'3 9.2
2018-May-14 04:48N 31°56' W 091°12'3 9.4
2018-May-14 04:30N 31°59' W 091°10'5 9.1
2018-May-14 04:00N 32°00' W 091°05'5 7.7
2018-May-14 03:19N 32°05' W 091°05'2 8.0
2018-May-14 03:00N 32°08' W 091°06'4 8.8
2018-May-14 02:30N 32°08' W 091°01'5 9.6
2018-May-14 02:00N 32°12' W 090°59'5 9.2
2018-May-14 01:30N 32°16' W 090°57'3 6.2
2018-May-14 01:00N 32°19' W 090°55'3 6.9
2018-May-14 00:30N 32°22' W 090°53'2 3.8
2018-May-14 00:00N 32°23' W 090°54'0 0.4
2018-May-13 23:30N 32°23' W 090°55'0 0.0
2018-May-13 23:00N 32°23' W 090°55'0 0.0
2018-May-13 22:30N 32°23' W 090°55'0 0.0
2018-May-13 22:00N 32°23' W 090°55'0 0.0
2018-May-13 21:30N 32°23' W 090°55'0 0.0
2018-May-13 21:00N 32°23' W 090°55'0 0.0
2018-May-13 20:30N 32°23' W 090°55'0 0.0
2018-May-13 20:00N 32°23' W 090°55'0 0.0
2018-May-13 19:27N 32°23' W 090°55'0 0.0
2018-May-13 19:00N 32°23' W 090°55'0 0.0
2018-May-13 18:30N 32°23' W 090°55'0 0.0
2018-May-13 17:57N 32°23' W 090°55'0 0.0
2018-May-13 17:30N 32°23' W 090°55'0 0.0
2018-May-13 17:00N 32°23' W 090°55'0 0.0
2018-May-13 16:30N 32°23' W 090°55'0 0.0
2018-May-13 16:00N 32°23' W 090°55'0 0.0
2018-May-13 15:30N 32°23' W 090°55'0 0.0
2018-May-13 15:00N 32°23' W 090°55'0 0.0
2018-May-13 14:30N 32°23' W 090°55'0 0.0
2018-May-13 14:00N 32°23' W 090°55'0 0.0
2018-May-13 13:30N 32°23' W 090°55'0 0.0
2018-May-13 13:00N 32°23' W 090°55'0 0.0
2018-May-13 12:30N 32°23' W 090°55'0 0.0
2018-May-13 12:00N 32°23' W 090°55'0 0.0
2018-May-13 11:30N 32°23' W 090°55'0 0.0
2018-May-13 11:00N 32°23' W 090°55'0 0.0
2018-May-13 10:30N 32°23' W 090°55'0 0.0
2018-May-13 10:00N 32°23' W 090°55'0 0.0
2018-May-13 09:27N 32°23' W 090°55'0 0.0
2018-May-13 09:00N 32°23' W 090°55'0 0.0
2018-May-13 08:27N 32°23' W 090°55'0 0.0
2018-May-13 08:00N 32°23' W 090°55'0 0.0
2018-May-13 07:30N 32°23' W 090°55'0 0.0
2018-May-13 07:00N 32°23' W 090°55'0 0.0
2018-May-13 06:30N 32°23' W 090°55'0 0.0
2018-May-13 06:00N 32°23' W 090°55'0 0.0
2018-May-13 05:30N 32°23' W 090°55'0 0.0
2018-May-13 05:00N 32°23' W 090°55'0 0.0
2018-May-13 04:30N 32°23' W 090°55'0 0.0
2018-May-13 04:00N 32°23' W 090°55'0 0.0
2018-May-13 03:30N 32°23' W 090°55'0 0.0
2018-May-13 03:00N 32°23' W 090°55'0 0.0
2018-May-13 02:30N 32°23' W 090°55'0 0.0
2018-May-13 02:00N 32°23' W 090°55'0 0.0
2018-May-13 01:30N 32°23' W 090°55'0 0.0
2018-May-13 01:00N 32°23' W 090°55'0 0.0
2018-May-13 00:30N 32°23' W 090°55'0 0.0
2018-May-13 00:00N 32°23' W 090°55'0 0.0
2018-May-12 23:30N 32°23' W 090°55'0 0.0
2018-May-12 23:00N 32°23' W 090°55'0 0.0
2018-May-12 22:30N 32°23' W 090°55'0 0.0
2018-May-12 22:00N 32°23' W 090°55'0 0.0
2018-May-12 21:30N 32°23' W 090°55'0 0.0
2018-May-12 21:00N 32°23' W 090°55'0 0.1
2018-May-12 20:30N 32°23' W 090°55'0 0.1
2018-May-12 20:00N 32°23' W 090°55'0 0.0
2018-May-12 19:30N 32°23' W 090°55'0 0.1
2018-May-12 19:00N 32°23' W 090°55'0 0.5
2018-May-12 18:30N 32°23' W 090°54'0 0.8
2018-May-12 18:00N 32°23' W 090°54'1 2.7
2018-May-12 17:30N 32°22' W 090°53'1 1.6
2018-May-12 17:00N 32°23' W 090°53'0 0.4
2018-May-12 16:30N 32°22' W 090°53'2 5.0
2018-May-12 16:00N 32°20' W 090°54'2 4.5
2018-May-12 15:30N 32°18' W 090°55'2 4.7
2018-May-12 15:00N 32°17' W 090°57'2 4.5
2018-May-12 14:30N 32°15' W 090°59'2 5.0
2018-May-12 14:00N 32°12' W 090°59'2 4.7
2018-May-12 13:30N 32°10' W 090°60'2 4.6
2018-May-12 12:58N 32°08' W 091°01'5 4.9
2018-May-12 11:59N 32°08' W 091°06'3 4.3
2018-May-12 11:14N 32°05' W 091°04'1 5.1
2018-May-12 11:00N 32°04' W 091°04'2 4.2
2018-May-12 10:30N 32°02' W 091°04'2 4.9
2018-May-12 10:00N 31°60' W 091°06'6 0.2
2018-May-11 01:42N 31°57' W 091°12'210.6
2018-May-11 01:30N 31°59' W 091°11'510.0
2018-May-11 01:00N 32°00' W 091°05'6 9.0
2018-May-11 00:17N 32°06' W 091°06'2 6.8
2018-May-11 00:00N 32°08' W 091°05'4 8.3
2018-May-10 23:30N 32°09' W 091°00'510.4
2018-May-10 23:00N 32°15' W 090°59'5 9.9
2018-May-10 22:30N 32°18' W 090°55'0 0.3
2018-May-10 22:00N 32°18' W 090°55'0 0.0
2018-May-10 21:30N 32°18' W 090°55'0 0.0
2018-May-10 21:00N 32°18' W 090°55'0 0.0
2018-May-10 20:30N 32°18' W 090°55'0 0.0
2018-May-10 20:00N 32°18' W 090°55'0 0.0
2018-May-10 19:30N 32°18' W 090°55'0 0.0
2018-May-10 19:00N 32°18' W 090°55'1 1.3
2018-May-10 18:30N 32°19' W 090°54'4 8.7
2018-May-10 18:00N 32°21' W 090°59'5 9.2
2018-May-10 17:30N 32°25' W 091°00'510.8
2018-May-10 17:00N 32°28' W 091°06'5 8.5
2018-May-10 16:22N 32°33' W 091°06'  
Track history (hours):
 
Tides and Currents Weather Stations Pressure Air Temp Water Temp Dewpoint Dewpoint Depression Visibility Wind Speed Wind Dir Waves Ship Positions

Melinda Brent

Owner: Kirby Inland Marine, LP, Houston, TX. More information available from US FCC via Universal Licensing System and Coast Guard Vessel Documentation Center.

Last reported at 2018-May-19 18:59 UTC. Time now 2018-May-21 01:31 UTC.
Position N 32°37' W 091°09'.

Length 114 m; draft 2.9 m.

Type: . MMSI: 366995520.

Date/timePositionNaut miles runAvg speedWind from/ knotsBaromVisibWave heightAir tempDewpointWater temp
2018-May-19 18:59N 32°37' W 091°09'3 5.4
2018-May-19 18:29N 32°35' W 091°07'2 5.1
2018-May-19 18:00N 32°32' W 091°06'3 5.9
2018-May-19 17:30N 32°30' W 091°07'3 5.5
2018-May-19 17:01N 32°27' W 091°05'3 5.5
2018-May-19 16:30N 32°26' W 091°02'3 5.3
2018-May-19 16:01N 32°25' W 090°60'3 5.3
2018-May-19 15:31N 32°22' W 091°00'2 4.7
2018-May-19 15:00N 32°21' W 090°58'3 5.4
2018-May-19 14:31N 32°21' W 090°55'2 4.0
2018-May-19 14:00N 32°19' W 090°55'1 2.4
2018-May-19 13:31N 32°18' W 090°56'0 0.0
2018-May-19 13:01N 32°18' W 090°56'0 0.0
2018-May-19 12:31N 32°18' W 090°56'0 0.0
2018-May-19 12:01N 32°18' W 090°56'1 2.5
2018-May-19 11:31N 32°17' W 090°57'3 5.4
2018-May-19 11:00N 32°15' W 090°59'3 5.0
2018-May-19 10:30N 32°12' W 090°59'2 4.4
2018-May-19 10:00N 32°10' W 090°60'2 4.3
2018-May-19 09:30N 32°08' W 091°00'5 3.8
2018-May-19 08:18N 32°08' W 091°06'1 3.6
2018-May-19 08:00N 32°07' W 091°06'3 3.5
2018-May-19 07:15N 32°05' W 091°04'2 4.7
2018-May-19 06:55N 32°04' W 091°04'2 4.6
2018-May-19 06:24N 32°01' W 091°04'  
2018-May-14 06:59N 31°42' W 091°24'9 9.3
2018-May-14 06:03N 31°50' W 091°21'1 8.6
2018-May-14 05:55N 31°51' W 091°20'7 8.8
2018-May-14 05:05N 31°54' W 091°12'3 9.2
2018-May-14 04:48N 31°56' W 091°12'3 9.4
2018-May-14 04:30N 31°59' W 091°10'5 9.1
2018-May-14 04:00N 32°00' W 091°05'5 7.7
2018-May-14 03:19N 32°05' W 091°05'2 8.0
2018-May-14 03:00N 32°08' W 091°06'4 8.8
2018-May-14 02:30N 32°08' W 091°01'5 9.6
2018-May-14 02:00N 32°12' W 090°59'5 9.2
2018-May-14 01:30N 32°16' W 090°57'3 6.2
2018-May-14 01:00N 32°19' W 090°55'3 6.9
2018-May-14 00:30N 32°22' W 090°53'2 3.8
2018-May-14 00:00N 32°23' W 090°54'0 0.4
2018-May-13 23:30N 32°23' W 090°55'0 0.0
2018-May-13 23:00N 32°23' W 090°55'0 0.0
2018-May-13 22:30N 32°23' W 090°55'0 0.0
2018-May-13 22:00N 32°23' W 090°55'0 0.0
2018-May-13 21:30N 32°23' W 090°55'0 0.0
2018-May-13 21:00N 32°23' W 090°55'0 0.0
2018-May-13 20:30N 32°23' W 090°55'0 0.0
2018-May-13 20:00N 32°23' W 090°55'0 0.0
2018-May-13 19:27N 32°23' W 090°55'0 0.0
2018-May-13 19:00N 32°23' W 090°55'0 0.0
2018-May-13 18:30N 32°23' W 090°55'0 0.0
2018-May-13 17:57N 32°23' W 090°55'0 0.0
2018-May-13 17:30N 32°23' W 090°55'0 0.0
2018-May-13 17:00N 32°23' W 090°55'0 0.0
2018-May-13 16:30N 32°23' W 090°55'0 0.0
2018-May-13 16:00N 32°23' W 090°55'0 0.0
2018-May-13 15:30N 32°23' W 090°55'0 0.0
2018-May-13 15:00N 32°23' W 090°55'0 0.0
2018-May-13 14:30N 32°23' W 090°55'0 0.0
2018-May-13 14:00N 32°23' W 090°55'0 0.0
2018-May-13 13:30N 32°23' W 090°55'0 0.0
2018-May-13 13:00N 32°23' W 090°55'0 0.0
2018-May-13 12:30N 32°23' W 090°55'0 0.0
2018-May-13 12:00N 32°23' W 090°55'0 0.0
2018-May-13 11:30N 32°23' W 090°55'0 0.0
2018-May-13 11:00N 32°23' W 090°55'0 0.0
2018-May-13 10:30N 32°23' W 090°55'0 0.0
2018-May-13 10:00N 32°23' W 090°55'0 0.0
2018-May-13 09:27N 32°23' W 090°55'0 0.0
2018-May-13 09:00N 32°23' W 090°55'0 0.0
2018-May-13 08:27N 32°23' W 090°55'0 0.0
2018-May-13 08:00N 32°23' W 090°55'0 0.0
2018-May-13 07:30N 32°23' W 090°55'0 0.0
2018-May-13 07:00N 32°23' W 090°55'0 0.0
2018-May-13 06:30N 32°23' W 090°55'0 0.0
2018-May-13 06:00N 32°23' W 090°55'0 0.0
2018-May-13 05:30N 32°23' W 090°55'0 0.0
2018-May-13 05:00N 32°23' W 090°55'0 0.0
2018-May-13 04:30N 32°23' W 090°55'0 0.0
2018-May-13 04:00N 32°23' W 090°55'0 0.0
2018-May-13 03:30N 32°23' W 090°55'0 0.0
2018-May-13 03:00N 32°23' W 090°55'0 0.0
2018-May-13 02:30N 32°23' W 090°55'0 0.0
2018-May-13 02:00N 32°23' W 090°55'0 0.0
2018-May-13 01:30N 32°23' W 090°55'0 0.0
2018-May-13 01:00N 32°23' W 090°55'0 0.0
2018-May-13 00:30N 32°23' W 090°55'0 0.0
2018-May-13 00:00N 32°23' W 090°55'0 0.0
2018-May-12 23:30N 32°23' W 090°55'0 0.0
2018-May-12 23:00N 32°23' W 090°55'0 0.0
2018-May-12 22:30N 32°23' W 090°55'0 0.0
2018-May-12 22:00N 32°23' W 090°55'0 0.0
2018-May-12 21:30N 32°23' W 090°55'0 0.0
2018-May-12 21:00N 32°23' W 090°55'0 0.1
2018-May-12 20:30N 32°23' W 090°55'0 0.1
2018-May-12 20:00N 32°23' W 090°55'0 0.0
2018-May-12 19:30N 32°23' W 090°55'0 0.1
2018-May-12 19:00N 32°23' W 090°55'0 0.5
2018-May-12 18:30N 32°23' W 090°54'0 0.8
2018-May-12 18:00N 32°23' W 090°54'1 2.7
2018-May-12 17:30N 32°22' W 090°53'1 1.6
2018-May-12 17:00N 32°23' W 090°53'0 0.4
2018-May-12 16:30N 32°22' W 090°53'2 5.0
2018-May-12 16:00N 32°20' W 090°54'2 4.5
2018-May-12 15:30N 32°18' W 090°55'2 4.7
2018-May-12 15:00N 32°17' W 090°57'2 4.5
2018-May-12 14:30N 32°15' W 090°59'2 5.0
2018-May-12 14:00N 32°12' W 090°59'2 4.7
2018-May-12 13:30N 32°10' W 090°60'2 4.6
2018-May-12 12:58N 32°08' W 091°01'5 4.9
2018-May-12 11:59N 32°08' W 091°06'3 4.3
2018-May-12 11:14N 32°05' W 091°04'1 5.1
2018-May-12 11:00N 32°04' W 091°04'2 4.2
2018-May-12 10:30N 32°02' W 091°04'2 4.9
2018-May-12 10:00N 31°60' W 091°06'6 0.2
2018-May-11 01:42N 31°57' W 091°12'210.6
2018-May-11 01:30N 31°59' W 091°11'510.0
2018-May-11 01:00N 32°00' W 091°05'6 9.0
2018-May-11 00:17N 32°06' W 091°06'2 6.8
2018-May-11 00:00N 32°08' W 091°05'4 8.3
2018-May-10 23:30N 32°09' W 091°00'510.4
2018-May-10 23:00N 32°15' W 090°59'5 9.9
2018-May-10 22:30N 32°18' W 090°55'0 0.3
2018-May-10 22:00N 32°18' W 090°55'0 0.0
2018-May-10 21:30N 32°18' W 090°55'0 0.0
2018-May-10 21:00N 32°18' W 090°55'0 0.0
2018-May-10 20:30N 32°18' W 090°55'0 0.0
2018-May-10 20:00N 32°18' W 090°55'0 0.0
2018-May-10 19:30N 32°18' W 090°55'0 0.0
2018-May-10 19:00N 32°18' W 090°55'1 1.3
2018-May-10 18:30N 32°19' W 090°54'4 8.7
2018-May-10 18:00N 32°21' W 090°59'5 9.2
2018-May-10 17:30N 32°25' W 091°00'510.8
2018-May-10 17:00N 32°28' W 091°06'5 8.5
2018-May-10 16:22N 32°33' W 091°06'  

Dump ship's entire track history